Wutai Shan, China
Current Conditions -  °F | °C
As of 5:00 AM on Tuesday 21 Oct 2014 (Local Time) from ZBSJ Reporting Station
Clear Clear  
Wind Chill: 59°   Ceiling: Unl
Heat Index: 59°   Visibility: 6mi
Dew Point: 52°   Wind: 7mph
Humidity: 77%   Direction: 100°E
Pressure: 30.21"   Gusts: NA
Location:  39.03°N, 113.53°E
Report Text: ZBSJ 202100Z 10003MPS 070V130 CAVOK 15/11 Q1023 NOSIG
Loading
Personal Weather Stations






























Interactive Weather Map
Tropical Storm Tracking
New forecast layout! Learn more

10-Day Weather Forecast

Advertisements
Track Severe Weather on mobile